createdAt,value
2018-09-24T00:04:34.271Z,95.50
2018-09-24T00:07:03.488Z,95.80
2018-09-24T00:09:35.533Z,95.70
2018-09-24T00:12:03.933Z,95.70
2018-09-24T00:14:33.162Z,95.70
2018-09-24T00:17:01.371Z,95.60
2018-09-24T00:19:30.523Z,95.70
2018-09-24T00:21:58.709Z,95.70
2018-09-24T00:24:26.802Z,95.70
2018-09-24T00:26:55.227Z,95.70
2018-09-24T00:29:23.442Z,96.00
2018-09-24T00:31:51.602Z,95.70
2018-09-24T00:34:19.877Z,95.70
2018-09-24T00:36:48.237Z,95.60
2018-09-24T00:39:16.366Z,95.60
2018-09-24T00:41:44.464Z,95.60
2018-09-24T00:44:12.611Z,95.60
2018-09-24T00:46:40.775Z,95.60
2018-09-24T00:49:08.854Z,95.60
2018-09-24T00:51:37.262Z,95.50
2018-09-24T00:54:05.510Z,95.50
2018-09-24T00:56:33.754Z,95.80
2018-09-24T00:59:01.883Z,95.50
2018-09-24T01:01:30.104Z,95.50
2018-09-24T01:03:58.250Z,95.50
2018-09-24T01:06:26.475Z,95.50
2018-09-24T01:08:54.658Z,95.50
2018-09-24T01:11:22.928Z,95.40
2018-09-24T01:13:51.091Z,95.50
2018-09-24T01:16:19.215Z,95.70
2018-09-24T01:18:47.321Z,95.40
2018-09-24T01:21:15.473Z,95.40
2018-09-24T01:23:43.871Z,95.40
2018-09-24T01:26:11.962Z,95.40
2018-09-24T01:28:40.062Z,95.40
2018-09-24T01:31:08.656Z,95.30
2018-09-24T01:33:36.904Z,95.40
2018-09-24T01:36:05.247Z,95.60
2018-09-24T01:38:33.630Z,95.10
2018-09-24T01:41:01.914Z,95.00
2018-09-24T01:46:05.856Z,95.00
2018-09-24T01:48:33.956Z,95.00
2018-09-24T01:51:02.058Z,95.00
2018-09-24T01:53:30.222Z,95.00
2018-09-24T01:55:58.302Z,95.00
2018-09-24T01:58:26.409Z,95.00
2018-09-24T02:00:54.758Z,95.00
2018-09-24T02:03:28.778Z,95.00
2018-09-24T02:05:56.907Z,95.00
2018-09-24T02:08:25.002Z,95.00
2018-09-24T02:10:53.070Z,95.00
2018-09-24T02:13:21.134Z,95.00
2018-09-24T02:15:49.210Z,95.00
2018-09-24T02:18:17.681Z,95.00
2018-09-24T02:20:48.030Z,94.90
2018-09-24T02:23:16.597Z,94.90
2018-09-24T02:25:44.671Z,94.90
2018-09-24T02:28:12.876Z,94.90
2018-09-24T02:30:40.946Z,94.90
2018-09-24T02:33:10.514Z,94.90
2018-09-24T02:35:39.693Z,94.90
2018-09-24T02:38:07.788Z,94.90
2018-09-24T02:40:35.877Z,94.90
2018-09-24T02:43:03.972Z,94.90
2018-09-24T02:45:32.045Z,94.80
2018-09-24T02:48:00.149Z,94.80
2018-09-24T02:50:36.106Z,94.80
2018-09-24T02:53:04.206Z,94.80
2018-09-24T02:55:32.295Z,94.80
2018-09-24T02:58:00.374Z,94.80
2018-09-24T03:00:28.494Z,94.80
2018-09-24T03:02:56.566Z,94.70
2018-09-24T03:05:24.638Z,94.70
2018-09-24T03:07:53.221Z,94.70
2018-09-24T03:10:21.307Z,94.70
2018-09-24T03:12:51.511Z,94.70
2018-09-24T03:15:19.985Z,94.70
2018-09-24T03:17:48.047Z,94.70
2018-09-24T03:20:16.203Z,94.60
2018-09-24T03:22:44.261Z,94.60
2018-09-24T03:25:17.991Z,94.60
2018-09-24T03:27:46.230Z,94.60
2018-09-24T03:30:14.328Z,94.60
2018-09-24T03:32:42.410Z,94.40
2018-09-24T03:35:10.479Z,94.40
2018-09-24T03:37:38.574Z,94.40
2018-09-24T03:40:06.626Z,94.40
2018-09-24T03:42:34.758Z,94.40
2018-09-24T03:45:02.968Z,94.40
2018-09-24T03:47:31.031Z,94.40
2018-09-24T03:49:59.130Z,94.40
2018-09-24T03:52:27.222Z,94.40
2018-09-24T03:54:55.386Z,94.30
2018-09-24T03:57:23.566Z,94.30
2018-09-24T03:59:51.682Z,94.40
2018-09-24T04:02:19.795Z,94.40
2018-09-24T04:04:53.364Z,94.30
2018-09-24T04:07:27.012Z,94.30
2018-09-24T04:10:00.728Z,94.30
2018-09-24T04:12:34.107Z,94.30
2018-09-24T04:15:07.731Z,94.30
2018-09-24T04:17:41.280Z,94.30
2018-09-24T04:20:14.857Z,94.30
2018-09-24T04:22:48.354Z,94.20
2018-09-24T04:25:22.839Z,94.20
2018-09-24T04:27:56.475Z,94.30
2018-09-24T04:30:30.078Z,94.20
2018-09-24T04:33:03.736Z,94.20
2018-09-24T04:35:37.457Z,94.20
2018-09-24T04:38:11.156Z,94.20
2018-09-24T04:40:44.831Z,94.10
2018-09-24T04:43:18.578Z,94.10
2018-09-24T04:45:52.371Z,94.10
2018-09-24T04:48:25.970Z,94.10
2018-09-24T04:51:00.451Z,94.10
2018-09-24T04:53:34.111Z,94.10
2018-09-24T04:58:59.227Z,93.80
2018-09-24T05:01:32.931Z,94.00
2018-09-24T05:04:06.429Z,94.10
2018-09-24T05:06:40.066Z,94.00
2018-09-24T05:09:14.019Z,94.00
2018-09-24T05:11:47.743Z,94.00
2018-09-24T05:14:21.495Z,94.00
2018-09-24T05:16:55.461Z,94.00
2018-09-24T05:19:29.054Z,94.00
2018-09-24T05:22:02.726Z,94.00
2018-09-24T05:24:36.498Z,94.00
2018-09-24T05:27:10.450Z,94.30
2018-09-24T05:29:47.206Z,94.00
2018-09-24T05:32:21.111Z,93.90
2018-09-24T05:34:54.859Z,93.90
2018-09-24T05:37:28.578Z,94.00
2018-09-24T05:40:02.228Z,93.90
2018-09-24T05:42:35.990Z,93.80
2018-09-24T05:45:09.948Z,93.70
2018-09-24T05:47:43.625Z,93.80
2018-09-24T05:52:59.087Z,93.90
2018-09-24T05:55:33.307Z,93.90
2018-09-24T05:58:06.667Z,94.00
2018-09-24T06:00:40.243Z,94.00
2018-09-24T06:03:13.830Z,94.00
2018-09-24T06:05:47.266Z,94.00
2018-09-24T06:08:20.834Z,94.00
2018-09-24T06:10:54.432Z,93.90
2018-09-24T06:13:27.919Z,93.90
2018-09-24T06:16:01.861Z,93.90
2018-09-24T06:18:35.286Z,93.80
2018-09-24T06:21:08.884Z,93.80
2018-09-24T06:23:42.315Z,93.70
2018-09-24T06:26:15.654Z,93.80
2018-09-24T06:28:49.076Z,93.70
2018-09-24T06:31:22.501Z,93.70
2018-09-24T06:33:55.934Z,93.70
2018-09-24T06:36:29.245Z,93.70
2018-09-24T06:39:02.911Z,93.60
2018-09-24T06:41:36.454Z,93.60
2018-09-24T06:44:09.902Z,93.50
2018-09-24T06:46:43.513Z,93.50
2018-09-24T06:49:16.995Z,93.50
2018-09-24T06:51:50.509Z,93.60
2018-09-24T06:54:24.116Z,93.50
2018-09-24T06:56:57.606Z,93.60
2018-09-24T06:59:31.254Z,93.40
2018-09-24T07:02:04.759Z,93.40
2018-09-24T07:04:38.298Z,93.40
2018-09-24T07:07:11.863Z,93.30
2018-09-24T07:09:45.371Z,93.40
2018-09-24T07:12:18.804Z,93.40
2018-09-24T07:14:52.370Z,93.30
2018-09-24T07:17:25.889Z,93.20
2018-09-24T07:19:59.443Z,93.20
2018-09-24T07:22:32.866Z,93.20
2018-09-24T07:25:06.456Z,93.20
2018-09-24T07:27:39.958Z,93.20
2018-09-24T07:30:13.516Z,93.10
2018-09-24T07:32:47.142Z,93.00
2018-09-24T07:35:20.780Z,93.10
2018-09-24T07:37:54.216Z,93.00
2018-09-24T07:40:27.755Z,92.80
2018-09-24T07:43:01.318Z,92.80
2018-09-24T07:45:34.891Z,92.80
2018-09-24T07:48:08.343Z,92.70
2018-09-24T07:50:42.015Z,92.60
2018-09-24T07:53:15.679Z,92.60
2018-09-24T07:55:49.415Z,92.80
2018-09-24T07:58:22.983Z,92.80
2018-09-24T08:00:56.789Z,93.00
2018-09-24T08:03:30.370Z,92.90
2018-09-24T08:06:04.059Z,92.90
2018-09-24T08:08:37.642Z,93.10
2018-09-24T08:11:11.323Z,93.00
2018-09-24T08:13:44.903Z,93.00
2018-09-24T08:16:18.720Z,93.10
2018-09-24T08:18:52.189Z,93.10
2018-09-24T08:21:25.646Z,93.10
2018-09-24T08:23:59.268Z,93.00
2018-09-24T08:26:32.771Z,92.80
2018-09-24T08:29:06.502Z,92.80
2018-09-24T08:31:40.230Z,92.90
2018-09-24T08:34:13.804Z,92.80
2018-09-24T08:36:47.324Z,92.90
2018-09-24T08:39:21.026Z,93.60
2018-09-24T08:41:54.834Z,92.70
2018-09-24T08:44:28.478Z,92.90
2018-09-24T08:47:02.132Z,93.10
2018-09-24T08:49:35.865Z,93.00
2018-09-24T08:52:09.356Z,93.00
2018-09-24T08:54:42.826Z,92.90
2018-09-24T08:57:16.518Z,92.90
2018-09-24T08:59:49.986Z,92.90
2018-09-24T09:02:23.694Z,92.80
2018-09-24T09:04:57.292Z,92.90
2018-09-24T09:07:30.874Z,92.80
2018-09-24T09:10:04.456Z,92.80
2018-09-24T09:12:38.201Z,92.80
2018-09-24T09:15:11.672Z,92.70
2018-09-24T09:17:45.356Z,92.60
2018-09-24T09:20:18.861Z,92.40
2018-09-24T09:22:52.821Z,92.30
2018-09-24T09:25:34.262Z,92.40
2018-09-24T09:28:09.467Z,92.40
2018-09-24T09:30:43.678Z,92.40
2018-09-24T09:33:17.613Z,92.30
2018-09-24T09:35:51.527Z,92.40
2018-09-24T09:38:25.366Z,92.40
2018-09-24T09:40:59.523Z,92.40
2018-09-24T09:43:33.621Z,92.40
2018-09-24T09:46:07.471Z,92.50
2018-09-24T09:48:41.486Z,92.60
2018-09-24T09:51:16.178Z,93.60
2018-09-24T09:53:50.062Z,93.90
2018-09-24T09:56:23.833Z,94.00
2018-09-24T09:58:57.796Z,93.60
2018-09-24T10:01:31.571Z,93.60
2018-09-24T10:04:05.181Z,93.50
2018-09-24T10:06:38.784Z,93.30
2018-09-24T10:09:13.292Z,93.20
2018-09-24T10:11:47.092Z,93.20
2018-09-24T10:14:20.818Z,93.00
2018-09-24T10:16:54.467Z,93.00
2018-09-24T10:19:27.983Z,92.90
2018-09-24T10:22:01.618Z,92.80
2018-09-24T10:24:35.266Z,92.70
2018-09-24T10:29:57.409Z,92.70
2018-09-24T10:32:31.051Z,92.70
2018-09-24T10:35:04.663Z,92.60
2018-09-24T10:37:38.120Z,92.50
2018-09-24T10:40:12.489Z,92.40
2018-09-24T10:42:46.032Z,92.40
2018-09-24T10:45:19.532Z,92.20
2018-09-24T10:47:53.185Z,92.00
2018-09-24T10:50:26.775Z,92.00
2018-09-24T10:53:00.409Z,92.00
2018-09-24T10:55:33.699Z,92.10
2018-09-24T10:58:07.275Z,92.00
2018-09-24T11:00:40.940Z,91.90
2018-09-24T11:03:14.475Z,91.80
2018-09-24T11:05:48.114Z,91.70
2018-09-24T11:08:21.749Z,91.70
2018-09-24T11:10:55.170Z,91.60
2018-09-24T11:13:28.663Z,91.60
2018-09-24T11:16:02.212Z,91.50
2018-09-24T11:18:35.668Z,91.50
2018-09-24T11:21:09.331Z,91.40
2018-09-24T11:23:42.827Z,91.20
2018-09-24T11:28:49.869Z,90.80
2018-09-24T11:31:23.318Z,90.60
2018-09-24T11:33:56.782Z,90.50
2018-09-24T11:36:30.467Z,90.60
2018-09-24T11:39:03.939Z,90.50
2018-09-24T11:41:37.486Z,90.40
2018-09-24T11:44:10.958Z,90.10
2018-09-24T11:46:44.601Z,90.10
2018-09-24T11:49:18.036Z,90.20
2018-09-24T11:51:51.621Z,90.40
2018-09-24T11:54:25.062Z,90.50
2018-09-24T11:56:58.559Z,90.60
2018-09-24T11:59:31.934Z,90.60
2018-09-24T12:02:05.529Z,90.50
2018-09-24T12:04:38.990Z,90.50
2018-09-24T12:07:12.692Z,90.40
2018-09-24T12:09:45.998Z,90.30
2018-09-24T12:12:19.510Z,90.30
2018-09-24T12:14:53.142Z,90.20
2018-09-24T12:17:26.679Z,90.00
2018-09-24T12:20:00.418Z,89.90
2018-09-24T12:22:33.706Z,90.00
2018-09-24T12:25:07.213Z,90.00
2018-09-24T12:27:40.564Z,89.80
2018-09-24T12:30:13.959Z,89.10
2018-09-24T12:32:47.252Z,89.10
2018-09-24T12:35:20.714Z,88.90
2018-09-24T12:37:54.146Z,88.80
2018-09-24T12:40:27.555Z,88.80
2018-09-24T12:43:01.151Z,88.90
2018-09-24T12:45:34.836Z,89.10
2018-09-24T12:48:08.468Z,89.30
2018-09-24T12:50:41.923Z,89.30
2018-09-24T12:53:15.306Z,89.10
2018-09-24T12:55:48.574Z,88.70
2018-09-24T12:58:22.018Z,88.40
2018-09-24T13:00:55.511Z,88.20
2018-09-24T13:03:28.930Z,87.80
2018-09-24T13:06:02.515Z,87.90
2018-09-24T13:08:36.270Z,87.50
2018-09-24T13:11:09.913Z,87.10
2018-09-24T13:13:43.458Z,87.00
2018-09-24T13:16:16.854Z,86.70
2018-09-24T13:18:50.682Z,86.50
2018-09-24T13:21:24.194Z,86.70
2018-09-24T13:23:57.774Z,86.60
2018-09-24T13:26:31.334Z,86.40
2018-09-24T13:29:04.775Z,86.50
2018-09-24T13:31:38.138Z,86.60
2018-09-24T13:34:11.543Z,86.50
2018-09-24T13:36:44.818Z,85.80
2018-09-24T13:39:18.273Z,85.90
2018-09-24T13:41:51.767Z,85.30
2018-09-24T13:44:25.380Z,84.90
2018-09-24T13:46:58.986Z,84.90
2018-09-24T13:49:32.617Z,85.20
2018-09-24T13:52:07.004Z,85.90
2018-09-24T13:54:40.520Z,86.70
2018-09-24T13:57:13.847Z,87.90
2018-09-24T13:59:47.438Z,87.00
2018-09-24T14:02:21.348Z,86.40
2018-09-24T14:04:55.051Z,86.70
2018-09-24T14:07:28.590Z,86.00
2018-09-24T14:10:02.222Z,85.90
2018-09-24T14:12:35.538Z,86.00
2018-09-24T14:15:09.022Z,86.10
2018-09-24T14:17:42.844Z,85.90
2018-09-24T14:20:17.079Z,84.90
2018-09-24T14:22:51.571Z,85.10
2018-09-24T14:25:25.118Z,85.90
2018-09-24T14:27:59.052Z,85.70
2018-09-24T14:30:33.414Z,85.70
2018-09-24T14:33:06.834Z,85.60
2018-09-24T14:35:40.427Z,85.60
2018-09-24T14:38:14.158Z,85.60
2018-09-24T14:40:47.582Z,85.90
2018-09-24T14:43:21.200Z,85.80
2018-09-24T14:45:54.734Z,85.80
2018-09-24T14:48:28.282Z,86.10
2018-09-24T14:51:01.767Z,85.50
2018-09-24T14:53:35.362Z,85.40
2018-09-24T14:56:08.782Z,84.60
2018-09-24T14:58:42.099Z,84.30
2018-09-24T15:01:15.670Z,84.40
2018-09-24T15:03:49.098Z,84.30
2018-09-24T15:06:22.394Z,84.30
2018-09-24T15:08:55.834Z,83.90
2018-09-24T15:11:29.125Z,83.80
2018-09-24T15:14:02.582Z,84.00
2018-09-24T15:16:36.162Z,84.00
2018-09-24T15:19:09.561Z,83.90
2018-09-24T15:21:42.894Z,84.20
2018-09-24T15:24:16.363Z,84.10
2018-09-24T15:26:49.687Z,83.40
2018-09-24T15:29:23.083Z,83.20
2018-09-24T15:31:56.610Z,83.50
2018-09-24T15:34:30.198Z,83.60
2018-09-24T15:37:03.478Z,83.70
2018-09-24T15:39:36.934Z,84.30
2018-09-24T15:42:10.405Z,84.70
2018-09-24T15:44:43.988Z,84.60
2018-09-24T15:47:17.491Z,85.00
2018-09-24T15:49:51.062Z,84.50
2018-09-24T15:52:24.577Z,84.70
2018-09-24T15:54:58.106Z,84.70
2018-09-24T15:57:31.521Z,84.80
2018-09-24T16:00:04.989Z,85.10
2018-09-24T16:02:38.448Z,85.10
2018-09-24T16:05:11.950Z,85.00
2018-09-24T16:07:45.567Z,85.30
2018-09-24T16:10:19.030Z,85.30
2018-09-24T16:12:52.663Z,85.60
2018-09-24T16:15:26.120Z,85.90
2018-09-24T16:17:59.674Z,86.60
2018-09-24T16:20:33.095Z,86.70
2018-09-24T16:23:06.803Z,86.70
2018-09-24T16:25:40.475Z,86.90
2018-09-24T16:28:13.982Z,87.00
2018-09-24T16:30:47.537Z,87.20
2018-09-24T16:33:21.160Z,87.20
2018-09-24T16:35:54.578Z,88.40
2018-09-24T16:38:27.894Z,89.90
2018-09-24T16:41:01.364Z,92.10
2018-09-24T16:43:34.719Z,93.30
2018-09-24T16:46:08.330Z,93.40
2018-09-24T16:48:42.072Z,93.70
2018-09-24T16:51:15.519Z,95.20
2018-09-24T16:53:48.995Z,94.20
2018-09-24T16:56:22.590Z,93.50
2018-09-24T16:58:56.151Z,93.60
2018-09-24T17:01:29.646Z,93.20
2018-09-24T17:04:03.362Z,92.80
2018-09-24T17:06:36.938Z,93.00
2018-09-24T17:09:13.402Z,93.40
2018-09-24T17:11:47.073Z,93.40
2018-09-24T17:14:20.958Z,93.20
2018-09-24T17:16:54.345Z,93.00
2018-09-24T17:19:28.224Z,92.90
2018-09-24T17:22:01.972Z,92.90
2018-09-24T17:24:35.546Z,92.90
2018-09-24T17:27:09.475Z,93.00
2018-09-24T17:29:43.230Z,92.90
2018-09-24T17:32:16.725Z,92.90
2018-09-24T17:34:52.765Z,92.80
2018-09-24T17:37:26.509Z,92.70
2018-09-24T17:40:00.191Z,92.60
2018-09-24T17:42:33.798Z,92.60
2018-09-24T17:45:07.472Z,93.00
2018-09-24T17:50:24.050Z,92.40
2018-09-24T17:52:57.916Z,92.80
2018-09-24T17:55:31.459Z,93.00
2018-09-24T17:58:05.123Z,93.50
2018-09-24T18:00:38.780Z,93.50
2018-09-24T18:03:12.755Z,93.70
2018-09-24T18:05:46.403Z,93.70
2018-09-24T18:08:20.334Z,93.50
2018-09-24T18:10:54.166Z,93.10
2018-09-24T18:13:28.832Z,93.00
2018-09-24T18:16:03.644Z,93.00
2018-09-24T18:18:38.607Z,93.10
2018-09-24T18:21:12.378Z,93.00
2018-09-24T18:23:46.856Z,93.00
2018-09-24T18:26:22.597Z,93.00
2018-09-24T18:28:57.719Z,92.90
2018-09-24T18:31:31.254Z,92.90
2018-09-24T18:34:04.795Z,92.90
2018-09-24T18:36:38.272Z,93.00
2018-09-24T18:39:14.090Z,93.20
2018-09-24T18:41:47.963Z,93.30
2018-09-24T18:44:22.864Z,93.20
2018-09-24T18:46:56.298Z,93.20
2018-09-24T18:49:29.962Z,93.20
2018-09-24T18:52:03.756Z,93.20
2018-09-24T18:54:37.467Z,93.10
2018-09-24T18:57:11.034Z,93.20
2018-09-24T18:59:44.678Z,93.30
2018-09-24T19:02:18.279Z,93.30
2018-09-24T19:04:51.914Z,93.20
2018-09-24T19:07:25.529Z,93.30
2018-09-24T19:09:59.162Z,93.30
2018-09-24T19:12:32.779Z,93.20
2018-09-24T19:15:06.408Z,93.30
2018-09-24T19:17:40.539Z,93.40
2018-09-24T19:20:14.103Z,93.40
2018-09-24T19:22:47.856Z,93.50
2018-09-24T19:25:21.495Z,93.50
2018-09-24T19:27:55.062Z,93.40
2018-09-24T19:30:28.767Z,93.40
2018-09-24T19:33:02.208Z,93.40
2018-09-24T19:35:35.722Z,93.50
2018-09-24T19:38:09.208Z,93.50
2018-09-24T19:40:42.774Z,93.50
2018-09-24T19:43:16.498Z,93.50
2018-09-24T19:48:31.952Z,93.30
2018-09-24T19:51:05.701Z,93.60
2018-09-24T19:53:39.200Z,93.60
2018-09-24T19:56:12.720Z,93.60
2018-09-24T19:58:46.199Z,93.60
2018-09-24T20:01:19.757Z,93.60
2018-09-24T20:03:53.410Z,93.70
2018-09-24T20:06:27.030Z,93.70
2018-09-24T20:09:00.559Z,93.70
2018-09-24T20:11:33.955Z,93.70
2018-09-24T20:14:07.379Z,93.70
2018-09-24T20:16:40.990Z,93.70
2018-09-24T20:19:14.605Z,93.70
2018-09-24T20:21:48.007Z,93.70
2018-09-24T20:24:21.458Z,93.70
2018-09-24T20:26:54.770Z,93.70
2018-09-24T20:29:28.581Z,93.70
2018-09-24T20:32:01.973Z,93.70
2018-09-24T20:34:35.440Z,93.70
2018-09-24T20:37:09.039Z,93.70
2018-09-24T20:39:42.314Z,93.70
2018-09-24T20:42:15.734Z,93.70
2018-09-24T20:44:49.192Z,93.70
2018-09-24T20:47:22.729Z,93.70
2018-09-24T20:49:56.378Z,93.60
2018-09-24T20:52:30.100Z,93.70
2018-09-24T20:55:03.575Z,93.80
2018-09-24T20:57:37.179Z,93.90
2018-09-24T21:00:11.305Z,93.70
2018-09-24T21:02:44.918Z,93.70
2018-09-24T21:05:18.396Z,93.70
2018-09-24T21:07:52.038Z,93.70
2018-09-24T21:10:25.394Z,93.70
2018-09-24T21:12:58.952Z,93.70
2018-09-24T21:15:32.706Z,93.60
2018-09-24T21:18:06.321Z,93.60
2018-09-24T21:20:40.000Z,93.60
2018-09-24T21:23:13.610Z,93.60
2018-09-24T21:25:47.357Z,93.60
2018-09-24T21:28:21.081Z,93.60
2018-09-24T21:30:54.827Z,93.50
2018-09-24T21:33:28.331Z,93.60
2018-09-24T21:36:01.923Z,93.60
2018-09-24T21:38:35.334Z,93.50
2018-09-24T21:41:09.114Z,93.50
2018-09-24T21:43:42.846Z,93.50
2018-09-24T21:46:16.659Z,93.50
2018-09-24T21:48:50.024Z,93.50
2018-09-24T21:51:23.644Z,93.50
2018-09-24T21:53:57.220Z,93.50
2018-09-24T21:56:30.682Z,93.40
2018-09-24T21:59:04.101Z,93.40
2018-09-24T22:01:38.129Z,93.30
2018-09-24T22:04:11.790Z,93.30
2018-09-24T22:06:45.606Z,93.30
2018-09-24T22:09:19.218Z,93.10
2018-09-24T22:11:53.007Z,93.10
2018-09-24T22:14:26.454Z,93.10
2018-09-24T22:17:00.161Z,93.20
2018-09-24T22:19:33.812Z,93.30
2018-09-24T22:22:07.386Z,93.40
2018-09-24T22:24:40.947Z,93.40
2018-09-24T22:27:14.658Z,93.40
2018-09-24T22:29:48.302Z,93.40
2018-09-24T22:32:21.925Z,93.50
2018-09-24T22:34:55.687Z,93.50
2018-09-24T22:37:29.254Z,93.50
2018-09-24T22:40:02.710Z,93.50
2018-09-24T22:42:36.282Z,93.50
2018-09-24T22:45:09.909Z,93.50
2018-09-24T22:47:43.482Z,93.50
2018-09-24T22:50:17.199Z,93.50
2018-09-24T22:52:50.822Z,93.60
2018-09-24T22:55:24.237Z,93.60
2018-09-24T22:57:57.607Z,93.50
2018-09-24T23:00:31.088Z,93.60
2018-09-24T23:03:04.693Z,93.60
2018-09-24T23:05:38.269Z,93.60
2018-09-24T23:08:11.765Z,93.60
2018-09-24T23:10:45.456Z,93.60
2018-09-24T23:13:19.104Z,93.60
2018-09-24T23:15:55.055Z,93.70
2018-09-24T23:18:28.719Z,93.70
2018-09-24T23:21:02.194Z,93.70
2018-09-24T23:23:35.952Z,93.70
2018-09-24T23:26:09.406Z,93.70
2018-09-24T23:28:42.734Z,93.70
2018-09-24T23:31:16.530Z,93.70
2018-09-24T23:33:51.589Z,93.70
2018-09-24T23:36:25.208Z,93.70
2018-09-24T23:38:59.048Z,93.70
2018-09-24T23:41:32.860Z,93.70
2018-09-24T23:44:06.561Z,93.50
2018-09-24T23:46:40.246Z,93.40
2018-09-24T23:49:14.160Z,93.50
2018-09-24T23:51:47.530Z,93.50
2018-09-24T23:54:21.058Z,93.50
2018-09-24T23:56:54.749Z,93.40
2018-09-24T23:59:28.514Z,93.50
